sensor_id;sensor_type;location;lat;lon;timestamp;temperature;humidity
74458;SHT31;62896;51.032;3.712;2023-04-03T00:02:36;4.9;79
74458;SHT31;62896;51.032;3.712;2023-04-03T00:05:56;4.9;79
74458;SHT31;62896;51.032;3.712;2023-04-03T00:09:16;4.9;79
74458;SHT31;62896;51.032;3.712;2023-04-03T00:12:36;4.9;79
74458;SHT31;62896;51.032;3.712;2023-04-03T00:15:56;4.9;79
74458;SHT31;62896;51.032;3.712;2023-04-03T00:19:16;4.9;79
74458;SHT31;62896;51.032;3.712;2023-04-03T00:22:36;4.9;79
74458;SHT31;62896;51.032;3.712;2023-04-03T00:25:56;4.8;78
74458;SHT31;62896;51.032;3.712;2023-04-03T00:29:16;4.8;78
74458;SHT31;62896;51.032;3.712;2023-04-03T00:32:36;4.8;78
74458;SHT31;62896;51.032;3.712;2023-04-03T00:35:56;4.8;78
74458;SHT31;62896;51.032;3.712;2023-04-03T00:39:16;4.8;78
74458;SHT31;62896;51.032;3.712;2023-04-03T00:42:36;4.8;78
74458;SHT31;62896;51.032;3.712;2023-04-03T00:45:58;4.8;78
74458;SHT31;62896;51.032;3.712;2023-04-03T00:49:16;4.8;78
74458;SHT31;62896;51.032;3.712;2023-04-03T00:52:36;4.8;78
74458;SHT31;62896;51.032;3.712;2023-04-03T00:55:56;4.8;78
74458;SHT31;62896;51.032;3.712;2023-04-03T00:59:16;4.8;78
74458;SHT31;62896;51.032;3.712;2023-04-03T01:02:36;4.8;78
74458;SHT31;62896;51.032;3.712;2023-04-03T01:05:56;4.7;78
74458;SHT31;62896;51.032;3.712;2023-04-03T01:09:16;4.7;78
74458;SHT31;62896;51.032;3.712;2023-04-03T01:12:36;4.7;78
74458;SHT31;62896;51.032;3.712;2023-04-03T01:15:56;4.7;78
74458;SHT31;62896;51.032;3.712;2023-04-03T01:19:16;4.7;78
74458;SHT31;62896;51.032;3.712;2023-04-03T01:22:37;4.7;78
74458;SHT31;62896;51.032;3.712;2023-04-03T01:25:56;4.6;78
74458;SHT31;62896;51.032;3.712;2023-04-03T01:29:16;4.6;78
74458;SHT31;62896;51.032;3.712;2023-04-03T01:32:36;4.6;78
74458;SHT31;62896;51.032;3.712;2023-04-03T01:35:56;4.5;79
74458;SHT31;62896;51.032;3.712;2023-04-03T01:39:16;4.5;79
74458;SHT31;62896;51.032;3.712;2023-04-03T01:42:36;4.5;79
74458;SHT31;62896;51.032;3.712;2023-04-03T01:45:56;4.5;79
74458;SHT31;62896;51.032;3.712;2023-04-03T01:49:16;4.5;79
74458;SHT31;62896;51.032;3.712;2023-04-03T01:52:36;4.5;79
74458;SHT31;62896;51.032;3.712;2023-04-03T01:55:56;4.4;79
74458;SHT31;62896;51.032;3.712;2023-04-03T01:59:16;4.4;79
74458;SHT31;62896;51.032;3.712;2023-04-03T02:02:36;4.4;79
74458;SHT31;62896;51.032;3.712;2023-04-03T02:05:56;4.4;79
74458;SHT31;62896;51.032;3.712;2023-04-03T02:09:16;4.4;79
74458;SHT31;62896;51.032;3.712;2023-04-03T02:12:36;4.4;79
74458;SHT31;62896;51.032;3.712;2023-04-03T02:15:56;4.4;79
74458;SHT31;62896;51.032;3.712;2023-04-03T02:19:16;4.4;79
74458;SHT31;62896;51.032;3.712;2023-04-03T02:22:36;4.4;79
74458;SHT31;62896;51.032;3.712;2023-04-03T02:26:02;4.3;80
74458;SHT31;62896;51.032;3.712;2023-04-03T02:29:16;4.3;80
74458;SHT31;62896;51.032;3.712;2023-04-03T02:32:36;4.3;80
74458;SHT31;62896;51.032;3.712;2023-04-03T02:35:56;4.3;80
74458;SHT31;62896;51.032;3.712;2023-04-03T02:39:16;4.3;80
74458;SHT31;62896;51.032;3.712;2023-04-03T02:42:36;4.3;80
74458;SHT31;62896;51.032;3.712;2023-04-03T02:45:56;4.3;80
74458;SHT31;62896;51.032;3.712;2023-04-03T02:49:16;4.3;80
74458;SHT31;62896;51.032;3.712;2023-04-03T02:52:36;4.3;80
74458;SHT31;62896;51.032;3.712;2023-04-03T02:55:56;4.2;80
74458;SHT31;62896;51.032;3.712;2023-04-03T02:59:16;4.2;80
74458;SHT31;62896;51.032;3.712;2023-04-03T03:02:36;4.2;80
74458;SHT31;62896;51.032;3.712;2023-04-03T03:06:04;4.1;80
74458;SHT31;62896;51.032;3.712;2023-04-03T03:09:16;4.1;80
74458;SHT31;62896;51.032;3.712;2023-04-03T03:12:36;4.1;80
74458;SHT31;62896;51.032;3.712;2023-04-03T03:15:56;4.1;80
74458;SHT31;62896;51.032;3.712;2023-04-03T03:19:16;4.1;80
74458;SHT31;62896;51.032;3.712;2023-04-03T03:22:36;4.1;80
74458;SHT31;62896;51.032;3.712;2023-04-03T03:25:56;4.1;80
74458;SHT31;62896;51.032;3.712;2023-04-03T03:29:16;4.1;80
74458;SHT31;62896;51.032;3.712;2023-04-03T03:32:36;4.1;80
74458;SHT31;62896;51.032;3.712;2023-04-03T03:35:56;4.1;79
74458;SHT31;62896;51.032;3.712;2023-04-03T03:39:16;4.1;79
74458;SHT31;62896;51.032;3.712;2023-04-03T03:42:36;4.1;79
74458;SHT31;62896;51.032;3.712;2023-04-03T03:45:56;4.1;79
74458;SHT31;62896;51.032;3.712;2023-04-03T03:49:16;4.1;79
74458;SHT31;62896;51.032;3.712;2023-04-03T03:52:36;4.1;79
74458;SHT31;62896;51.032;3.712;2023-04-03T03:55:56;4;80
74458;SHT31;62896;51.032;3.712;2023-04-03T03:59:16;4;80
74458;SHT31;62896;51.032;3.712;2023-04-03T04:02:36;4;80
74458;SHT31;62896;51.032;3.712;2023-04-03T04:05:56;3.9;80
74458;SHT31;62896;51.032;3.712;2023-04-03T04:09:16;3.9;80
74458;SHT31;62896;51.032;3.712;2023-04-03T04:12:36;3.9;80
74458;SHT31;62896;51.032;3.712;2023-04-03T04:15:56;3.9;80
74458;SHT31;62896;51.032;3.712;2023-04-03T04:19:16;3.9;80
74458;SHT31;62896;51.032;3.712;2023-04-03T04:22:36;3.9;80
74458;SHT31;62896;51.032;3.712;2023-04-03T04:25:56;3.9;80
74458;SHT31;62896;51.032;3.712;2023-04-03T04:29:16;3.9;80
74458;SHT31;62896;51.032;3.712;2023-04-03T04:32:36;3.9;80
74458;SHT31;62896;51.032;3.712;2023-04-03T04:35:56;3.8;80
74458;SHT31;62896;51.032;3.712;2023-04-03T04:39:16;3.8;80
74458;SHT31;62896;51.032;3.712;2023-04-03T04:42:36;3.8;80
74458;SHT31;62896;51.032;3.712;2023-04-03T04:46:01;3.7;80
74458;SHT31;62896;51.032;3.712;2023-04-03T04:49:16;3.7;80
74458;SHT31;62896;51.032;3.712;2023-04-03T04:52:36;3.7;80
74458;SHT31;62896;51.032;3.712;2023-04-03T04:55:56;3.6;80
74458;SHT31;62896;51.032;3.712;2023-04-03T04:59:16;3.6;80
74458;SHT31;62896;51.032;3.712;2023-04-03T05:02:36;3.6;80
74458;SHT31;62896;51.032;3.712;2023-04-03T05:05:56;3.6;81
74458;SHT31;62896;51.032;3.712;2023-04-03T05:09:16;3.6;81
74458;SHT31;62896;51.032;3.712;2023-04-03T05:12:36;3.6;81
74458;SHT31;62896;51.032;3.712;2023-04-03T05:15:56;3.5;81
74458;SHT31;62896;51.032;3.712;2023-04-03T05:19:16;3.5;81
74458;SHT31;62896;51.032;3.712;2023-04-03T05:22:36;3.5;81
74458;SHT31;62896;51.032;3.712;2023-04-03T05:25:56;3.5;81
74458;SHT31;62896;51.032;3.712;2023-04-03T05:29:16;3.5;81
74458;SHT31;62896;51.032;3.712;2023-04-03T05:32:36;3.5;81
74458;SHT31;62896;51.032;3.712;2023-04-03T05:35:56;3.5;81
74458;SHT31;62896;51.032;3.712;2023-04-03T05:39:16;3.5;81
74458;SHT31;62896;51.032;3.712;2023-04-03T05:42:36;3.5;81
74458;SHT31;62896;51.032;3.712;2023-04-03T05:45:56;3.5;82
74458;SHT31;62896;51.032;3.712;2023-04-03T05:49:16;3.5;82
74458;SHT31;62896;51.032;3.712;2023-04-03T05:52:37;3.5;82
74458;SHT31;62896;51.032;3.712;2023-04-03T05:55:56;3.6;81
74458;SHT31;62896;51.032;3.712;2023-04-03T05:59:16;3.6;81
74458;SHT31;62896;51.032;3.712;2023-04-03T06:02:36;3.6;81
74458;SHT31;62896;51.032;3.712;2023-04-03T06:05:56;3.7;81
74458;SHT31;62896;51.032;3.712;2023-04-03T06:09:16;3.7;81
74458;SHT31;62896;51.032;3.712;2023-04-03T06:12:36;3.7;81
74458;SHT31;62896;51.032;3.712;2023-04-03T06:15:56;3.9;81
74458;SHT31;62896;51.032;3.712;2023-04-03T06:19:16;3.9;81
74458;SHT31;62896;51.032;3.712;2023-04-03T06:22:36;3.9;81
74458;SHT31;62896;51.032;3.712;2023-04-03T06:25:56;4.1;80
74458;SHT31;62896;51.032;3.712;2023-04-03T06:29:16;4.1;80
74458;SHT31;62896;51.032;3.712;2023-04-03T06:32:36;4.1;80
74458;SHT31;62896;51.032;3.712;2023-04-03T06:35:57;4.4;79
74458;SHT31;62896;51.032;3.712;2023-04-03T06:39:17;4.4;79
74458;SHT31;62896;51.032;3.712;2023-04-03T06:42:36;4.4;79
74458;SHT31;62896;51.032;3.712;2023-04-03T06:45:56;4.6;78
74458;SHT31;62896;51.032;3.712;2023-04-03T06:49:16;4.6;78
74458;SHT31;62896;51.032;3.712;2023-04-03T06:52:36;4.6;78
74458;SHT31;62896;51.032;3.712;2023-04-03T06:55:56;4.9;77
74458;SHT31;62896;51.032;3.712;2023-04-03T06:59:16;4.9;77
74458;SHT31;62896;51.032;3.712;2023-04-03T07:02:36;4.9;77
74458;SHT31;62896;51.032;3.712;2023-04-03T07:05:56;6.1;72
74458;SHT31;62896;51.032;3.712;2023-04-03T07:09:16;6.1;72
74458;SHT31;62896;51.032;3.712;2023-04-03T07:12:36;6.1;72
74458;SHT31;62896;51.032;3.712;2023-04-03T07:15:56;5.7;73
74458;SHT31;62896;51.032;3.712;2023-04-03T07:19:16;5.7;73
74458;SHT31;62896;51.032;3.712;2023-04-03T07:22:36;5.7;73
74458;SHT31;62896;51.032;3.712;2023-04-03T07:25:56;5.7;73
74458;SHT31;62896;51.032;3.712;2023-04-03T07:29:16;5.7;73
74458;SHT31;62896;51.032;3.712;2023-04-03T07:32:36;5.7;73
74458;SHT31;62896;51.032;3.712;2023-04-03T07:35:56;5.9;72
74458;SHT31;62896;51.032;3.712;2023-04-03T07:39:16;5.9;72
74458;SHT31;62896;51.032;3.712;2023-04-03T07:42:36;5.9;72
74458;SHT31;62896;51.032;3.712;2023-04-03T07:45:56;6.1;72
74458;SHT31;62896;51.032;3.712;2023-04-03T07:49:16;6.1;72
74458;SHT31;62896;51.032;3.712;2023-04-03T07:52:36;6.1;72
74458;SHT31;62896;51.032;3.712;2023-04-03T07:55:56;6.3;72
74458;SHT31;62896;51.032;3.712;2023-04-03T07:59:16;6.3;72
74458;SHT31;62896;51.032;3.712;2023-04-03T08:02:36;6.3;72
74458;SHT31;62896;51.032;3.712;2023-04-03T08:06:00;6.4;72
74458;SHT31;62896;51.032;3.712;2023-04-03T08:09:17;6.4;72
74458;SHT31;62896;51.032;3.712;2023-04-03T08:12:36;6.4;72
74458;SHT31;62896;51.032;3.712;2023-04-03T08:15:56;7.1;71
74458;SHT31;62896;51.032;3.712;2023-04-03T08:19:16;7.1;71
74458;SHT31;62896;51.032;3.712;2023-04-03T08:22:36;7.1;71
74458;SHT31;62896;51.032;3.712;2023-04-03T08:25:56;7;70
74458;SHT31;62896;51.032;3.712;2023-04-03T08:29:16;7;70
74458;SHT31;62896;51.032;3.712;2023-04-03T08:32:36;7;70
74458;SHT31;62896;51.032;3.712;2023-04-03T08:35:56;7;70
74458;SHT31;62896;51.032;3.712;2023-04-03T08:39:16;7;70
74458;SHT31;62896;51.032;3.712;2023-04-03T08:42:40;7;70
74458;SHT31;62896;51.032;3.712;2023-04-03T08:45:57;7.1;71
74458;SHT31;62896;51.032;3.712;2023-04-03T08:49:18;7.1;71
74458;SHT31;62896;51.032;3.712;2023-04-03T08:52:38;7.1;71
74458;SHT31;62896;51.032;3.712;2023-04-03T08:55:56;7.3;67
74458;SHT31;62896;51.032;3.712;2023-04-03T08:59:18;7.3;67
74458;SHT31;62896;51.032;3.712;2023-04-03T09:02:40;7.3;67
74458;SHT31;62896;51.032;3.712;2023-04-03T09:05:57;7.5;64
74458;SHT31;62896;51.032;3.712;2023-04-03T09:09:20;7.5;64
74458;SHT31;62896;51.032;3.712;2023-04-03T09:12:37;7.5;64
74458;SHT31;62896;51.032;3.712;2023-04-03T09:15:56;7.8;62
74458;SHT31;62896;51.032;3.712;2023-04-03T09:19:18;7.8;62
74458;SHT31;62896;51.032;3.712;2023-04-03T09:22:37;7.8;62
74458;SHT31;62896;51.032;3.712;2023-04-03T09:25:58;7.8;62
74458;SHT31;62896;51.032;3.712;2023-04-03T09:29:17;7.8;62
74458;SHT31;62896;51.032;3.712;2023-04-03T09:32:36;7.8;62
74458;SHT31;62896;51.032;3.712;2023-04-03T09:35:56;8.1;61
74458;SHT31;62896;51.032;3.712;2023-04-03T09:39:17;8.1;61
74458;SHT31;62896;51.032;3.712;2023-04-03T09:42:38;8.1;61
74458;SHT31;62896;51.032;3.712;2023-04-03T09:45:59;8.3;59
74458;SHT31;62896;51.032;3.712;2023-04-03T09:49:17;8.3;59
74458;SHT31;62896;51.032;3.712;2023-04-03T09:52:36;8.3;59
74458;SHT31;62896;51.032;3.712;2023-04-03T09:55:56;8.5;56
74458;SHT31;62896;51.032;3.712;2023-04-03T09:59:16;8.5;56
74458;SHT31;62896;51.032;3.712;2023-04-03T10:02:37;8.5;56
74458;SHT31;62896;51.032;3.712;2023-04-03T10:05:57;8.4;56
74458;SHT31;62896;51.032;3.712;2023-04-03T10:09:18;8.4;56
74458;SHT31;62896;51.032;3.712;2023-04-03T10:12:36;8.4;56
74458;SHT31;62896;51.032;3.712;2023-04-03T10:16:03;8.5;56
74458;SHT31;62896;51.032;3.712;2023-04-03T10:19:29;8.5;56
74458;SHT31;62896;51.032;3.712;2023-04-03T10:22:37;8.5;56
74458;SHT31;62896;51.032;3.712;2023-04-03T10:26:00;8.5;55
74458;SHT31;62896;51.032;3.712;2023-04-03T10:29:21;8.5;55
74458;SHT31;62896;51.032;3.712;2023-04-03T10:32:43;8.5;55
74458;SHT31;62896;51.032;3.712;2023-04-03T10:36:00;8.7;53
74458;SHT31;62896;51.032;3.712;2023-04-03T10:39:19;8.7;53
74458;SHT31;62896;51.032;3.712;2023-04-03T10:42:37;8.7;53
74458;SHT31;62896;51.032;3.712;2023-04-03T10:45:57;8.9;50
74458;SHT31;62896;51.032;3.712;2023-04-03T10:49:19;8.9;50
74458;SHT31;62896;51.032;3.712;2023-04-03T10:52:37;8.9;50
74458;SHT31;62896;51.032;3.712;2023-04-03T10:55:57;9.3;50
74458;SHT31;62896;51.032;3.712;2023-04-03T10:59:18;9.3;50
74458;SHT31;62896;51.032;3.712;2023-04-03T11:02:37;9.3;50
74458;SHT31;62896;51.032;3.712;2023-04-03T11:05:56;9.7;49
74458;SHT31;62896;51.032;3.712;2023-04-03T11:09:19;9.7;49
74458;SHT31;62896;51.032;3.712;2023-04-03T11:12:38;9.7;49
74458;SHT31;62896;51.032;3.712;2023-04-03T11:15:56;9.6;48
74458;SHT31;62896;51.032;3.712;2023-04-03T11:19:17;9.6;48
74458;SHT31;62896;51.032;3.712;2023-04-03T11:22:38;9.6;48
74458;SHT31;62896;51.032;3.712;2023-04-03T11:25:59;9.8;45
74458;SHT31;62896;51.032;3.712;2023-04-03T11:29:18;9.8;45
74458;SHT31;62896;51.032;3.712;2023-04-03T11:32:42;9.8;45
74458;SHT31;62896;51.032;3.712;2023-04-03T11:35:57;10.2;46
74458;SHT31;62896;51.032;3.712;2023-04-03T11:39:18;10.2;46
74458;SHT31;62896;51.032;3.712;2023-04-03T11:42:37;10.2;46
74458;SHT31;62896;51.032;3.712;2023-04-03T11:45:57;10.6;43
74458;SHT31;62896;51.032;3.712;2023-04-03T11:49:49;10.6;43
74458;SHT31;62896;51.032;3.712;2023-04-03T11:53:25;10.6;43
74458;SHT31;62896;51.032;3.712;2023-04-03T11:55:58;10.5;41
74458;SHT31;62896;51.032;3.712;2023-04-03T11:59:24;10.5;41
74458;SHT31;62896;51.032;3.712;2023-04-03T12:02:37;10.5;41
74458;SHT31;62896;51.032;3.712;2023-04-03T12:05:57;10.7;40
74458;SHT31;62896;51.032;3.712;2023-04-03T12:09:26;10.7;40
74458;SHT31;62896;51.032;3.712;2023-04-03T12:12:38;10.7;40
74458;SHT31;62896;51.032;3.712;2023-04-03T12:15:56;11.4;37
74458;SHT31;62896;51.032;3.712;2023-04-03T12:19:33;11.4;37
74458;SHT31;62896;51.032;3.712;2023-04-03T12:22:36;11.4;37
74458;SHT31;62896;51.032;3.712;2023-04-03T12:26:01;11.8;36
74458;SHT31;62896;51.032;3.712;2023-04-03T12:29:17;11.8;36
74458;SHT31;62896;51.032;3.712;2023-04-03T12:32:45;11.8;36
74458;SHT31;62896;51.032;3.712;2023-04-03T12:35:58;12.1;36
74458;SHT31;62896;51.032;3.712;2023-04-03T12:39:20;12.1;36
74458;SHT31;62896;51.032;3.712;2023-04-03T12:42:41;12.1;36
74458;SHT31;62896;51.032;3.712;2023-04-03T12:45:58;12.2;35
74458;SHT31;62896;51.032;3.712;2023-04-03T12:49:22;12.2;35
74458;SHT31;62896;51.032;3.712;2023-04-03T12:52:38;12.2;35
74458;SHT31;62896;51.032;3.712;2023-04-03T12:55:57;12.7;35
74458;SHT31;62896;51.032;3.712;2023-04-03T12:59:18;12.7;35
74458;SHT31;62896;51.032;3.712;2023-04-03T13:02:36;12.7;35
74458;SHT31;62896;51.032;3.712;2023-04-03T13:05:59;12.9;35
74458;SHT31;62896;51.032;3.712;2023-04-03T13:09:18;12.9;35
74458;SHT31;62896;51.032;3.712;2023-04-03T13:12:44;12.9;35
74458;SHT31;62896;51.032;3.712;2023-04-03T13:15:57;12.8;34
74458;SHT31;62896;51.032;3.712;2023-04-03T13:19:17;12.8;34
74458;SHT31;62896;51.032;3.712;2023-04-03T13:22:38;12.8;34
74458;SHT31;62896;51.032;3.712;2023-04-03T13:25:56;13.9;31
74458;SHT31;62896;51.032;3.712;2023-04-03T13:29:20;13.9;31
74458;SHT31;62896;51.032;3.712;2023-04-03T13:32:36;13.9;31
74458;SHT31;62896;51.032;3.712;2023-04-03T13:35:57;13.9;31
74458;SHT31;62896;51.032;3.712;2023-04-03T13:39:21;13.9;31
74458;SHT31;62896;51.032;3.712;2023-04-03T13:42:37;13.9;31
74458;SHT31;62896;51.032;3.712;2023-04-03T13:45:58;13.4;31
74458;SHT31;62896;51.032;3.712;2023-04-03T13:49:17;13.4;31
74458;SHT31;62896;51.032;3.712;2023-04-03T13:52:39;13.4;31
74458;SHT31;62896;51.032;3.712;2023-04-03T13:55:58;13.2;31
74458;SHT31;62896;51.032;3.712;2023-04-03T13:59:21;13.2;31
74458;SHT31;62896;51.032;3.712;2023-04-03T14:02:38;13.2;31
74458;SHT31;62896;51.032;3.712;2023-04-03T14:05:56;13.4;29
74458;SHT31;62896;51.032;3.712;2023-04-03T14:09:18;13.4;29
74458;SHT31;62896;51.032;3.712;2023-04-03T14:12:37;13.4;29
74458;SHT31;62896;51.032;3.712;2023-04-03T14:15:56;14;28
74458;SHT31;62896;51.032;3.712;2023-04-03T14:19:18;14;28
74458;SHT31;62896;51.032;3.712;2023-04-03T14:22:36;14;28
74458;SHT31;62896;51.032;3.712;2023-04-03T14:25:56;13.9;28
74458;SHT31;62896;51.032;3.712;2023-04-03T14:29:16;13.9;28
74458;SHT31;62896;51.032;3.712;2023-04-03T14:32:36;13.9;28
74458;SHT31;62896;51.032;3.712;2023-04-03T14:35:56;14;28
74458;SHT31;62896;51.032;3.712;2023-04-03T14:39:17;14;28
74458;SHT31;62896;51.032;3.712;2023-04-03T14:42:37;14;28
74458;SHT31;62896;51.032;3.712;2023-04-03T14:45:56;13.9;27
74458;SHT31;62896;51.032;3.712;2023-04-03T14:49:18;13.9;27
74458;SHT31;62896;51.032;3.712;2023-04-03T14:52:36;13.9;27
74458;SHT31;62896;51.032;3.712;2023-04-03T14:55:56;14.9;27
74458;SHT31;62896;51.032;3.712;2023-04-03T14:59:16;14.9;27
74458;SHT31;62896;51.032;3.712;2023-04-03T15:02:37;14.9;27
74458;SHT31;62896;51.032;3.712;2023-04-03T15:05:56;15.7;26
74458;SHT31;62896;51.032;3.712;2023-04-03T15:09:18;15.7;26
74458;SHT31;62896;51.032;3.712;2023-04-03T15:12:36;15.7;26
74458;SHT31;62896;51.032;3.712;2023-04-03T15:15:56;15.4;26
74458;SHT31;62896;51.032;3.712;2023-04-03T15:19:16;15.4;26
74458;SHT31;62896;51.032;3.712;2023-04-03T15:22:36;15.4;26
74458;SHT31;62896;51.032;3.712;2023-04-03T15:25:57;15.5;26
74458;SHT31;62896;51.032;3.712;2023-04-03T15:29:16;15.5;26
74458;SHT31;62896;51.032;3.712;2023-04-03T15:32:36;15.5;26
74458;SHT31;62896;51.032;3.712;2023-04-03T15:35:56;15.8;26
74458;SHT31;62896;51.032;3.712;2023-04-03T15:39:16;15.8;26
74458;SHT31;62896;51.032;3.712;2023-04-03T15:42:37;15.8;26
74458;SHT31;62896;51.032;3.712;2023-04-03T15:45:57;16.4;25
74458;SHT31;62896;51.032;3.712;2023-04-03T15:49:17;16.4;25
74458;SHT31;62896;51.032;3.712;2023-04-03T15:52:36;16.4;25
74458;SHT31;62896;51.032;3.712;2023-04-03T15:55:56;13.4;28
74458;SHT31;62896;51.032;3.712;2023-04-03T15:59:16;13.4;28
74458;SHT31;62896;51.032;3.712;2023-04-03T16:02:36;13.4;28
74458;SHT31;62896;51.032;3.712;2023-04-03T16:05:56;11.7;31
74458;SHT31;62896;51.032;3.712;2023-04-03T16:09:16;11.7;31
74458;SHT31;62896;51.032;3.712;2023-04-03T16:12:37;11.7;31
74458;SHT31;62896;51.032;3.712;2023-04-03T16:15:56;11.3;32
74458;SHT31;62896;51.032;3.712;2023-04-03T16:19:16;11.3;32
74458;SHT31;62896;51.032;3.712;2023-04-03T16:22:36;11.3;32
74458;SHT31;62896;51.032;3.712;2023-04-03T16:25:56;11.1;32
74458;SHT31;62896;51.032;3.712;2023-04-03T16:29:16;11.1;32
74458;SHT31;62896;51.032;3.712;2023-04-03T16:32:37;11.1;32
74458;SHT31;62896;51.032;3.712;2023-04-03T16:35:56;10.9;31
74458;SHT31;62896;51.032;3.712;2023-04-03T16:39:17;10.9;31
74458;SHT31;62896;51.032;3.712;2023-04-03T16:42:37;10.9;31
74458;SHT31;62896;51.032;3.712;2023-04-03T16:45:57;10.8;31
74458;SHT31;62896;51.032;3.712;2023-04-03T16:49:16;10.8;31
74458;SHT31;62896;51.032;3.712;2023-04-03T16:52:37;10.8;31
74458;SHT31;62896;51.032;3.712;2023-04-03T16:55:57;10.8;32
74458;SHT31;62896;51.032;3.712;2023-04-03T16:59:17;10.8;32
74458;SHT31;62896;51.032;3.712;2023-04-03T17:02:37;10.8;32
74458;SHT31;62896;51.032;3.712;2023-04-03T17:05:57;10.7;33
74458;SHT31;62896;51.032;3.712;2023-04-03T17:09:17;10.7;33
74458;SHT31;62896;51.032;3.712;2023-04-03T17:12:37;10.7;33
74458;SHT31;62896;51.032;3.712;2023-04-03T17:15:57;10.6;33
74458;SHT31;62896;51.032;3.712;2023-04-03T17:19:17;10.6;33
74458;SHT31;62896;51.032;3.712;2023-04-03T17:22:37;10.6;33
74458;SHT31;62896;51.032;3.712;2023-04-03T17:25:57;10.5;33
74458;SHT31;62896;51.032;3.712;2023-04-03T17:29:17;10.5;33
74458;SHT31;62896;51.032;3.712;2023-04-03T17:32:37;10.5;33
74458;SHT31;62896;51.032;3.712;2023-04-03T17:35:57;10.3;34
74458;SHT31;62896;51.032;3.712;2023-04-03T17:39:17;10.3;34
74458;SHT31;62896;51.032;3.712;2023-04-03T17:42:37;10.3;34
74458;SHT31;62896;51.032;3.712;2023-04-03T17:45:58;10.2;35
74458;SHT31;62896;51.032;3.712;2023-04-03T17:49:17;10.2;35
74458;SHT31;62896;51.032;3.712;2023-04-03T17:52:37;10.2;35
74458;SHT31;62896;51.032;3.712;2023-04-03T17:55:57;9.9;36
74458;SHT31;62896;51.032;3.712;2023-04-03T17:59:17;9.9;36
74458;SHT31;62896;51.032;3.712;2023-04-03T18:02:37;9.9;36
74458;SHT31;62896;51.032;3.712;2023-04-03T18:05:57;9.7;37
74458;SHT31;62896;51.032;3.712;2023-04-03T18:09:17;9.7;37
74458;SHT31;62896;51.032;3.712;2023-04-03T18:12:37;9.7;37
74458;SHT31;62896;51.032;3.712;2023-04-03T18:15:57;9.5;38
74458;SHT31;62896;51.032;3.712;2023-04-03T18:19:17;9.5;38
74458;SHT31;62896;51.032;3.712;2023-04-03T18:22:37;9.5;38
74458;SHT31;62896;51.032;3.712;2023-04-03T18:25:57;9.3;39
74458;SHT31;62896;51.032;3.712;2023-04-03T18:29:17;9.3;39
74458;SHT31;62896;51.032;3.712;2023-04-03T18:32:37;9.3;39
74458;SHT31;62896;51.032;3.712;2023-04-03T18:35:57;9;41
74458;SHT31;62896;51.032;3.712;2023-04-03T18:39:17;9;41
74458;SHT31;62896;51.032;3.712;2023-04-03T18:42:37;9;41
74458;SHT31;62896;51.032;3.712;2023-04-03T18:45:57;8.8;42
74458;SHT31;62896;51.032;3.712;2023-04-03T18:49:17;8.8;42
74458;SHT31;62896;51.032;3.712;2023-04-03T18:52:37;8.8;42
74458;SHT31;62896;51.032;3.712;2023-04-03T18:55:57;8.6;44
74458;SHT31;62896;51.032;3.712;2023-04-03T18:59:17;8.6;44
74458;SHT31;62896;51.032;3.712;2023-04-03T19:02:37;8.6;44
74458;SHT31;62896;51.032;3.712;2023-04-03T19:05:57;8.4;44
74458;SHT31;62896;51.032;3.712;2023-04-03T19:09:17;8.4;44
74458;SHT31;62896;51.032;3.712;2023-04-03T19:12:37;8.4;44
74458;SHT31;62896;51.032;3.712;2023-04-03T19:15:57;8.2;45
74458;SHT31;62896;51.032;3.712;2023-04-03T19:19:17;8.2;45
74458;SHT31;62896;51.032;3.712;2023-04-03T19:22:37;8.2;45
74458;SHT31;62896;51.032;3.712;2023-04-03T19:25:57;8;46
74458;SHT31;62896;51.032;3.712;2023-04-03T19:29:17;8;46
74458;SHT31;62896;51.032;3.712;2023-04-03T19:32:37;8;46
74458;SHT31;62896;51.032;3.712;2023-04-03T19:35:57;7.8;47
74458;SHT31;62896;51.032;3.712;2023-04-03T19:39:17;7.8;47
74458;SHT31;62896;51.032;3.712;2023-04-03T19:42:37;7.8;47
74458;SHT31;62896;51.032;3.712;2023-04-03T19:45:57;7.7;48
74458;SHT31;62896;51.032;3.712;2023-04-03T19:49:17;7.7;48
74458;SHT31;62896;51.032;3.712;2023-04-03T19:52:37;7.7;48
74458;SHT31;62896;51.032;3.712;2023-04-03T19:55:57;7.6;48
74458;SHT31;62896;51.032;3.712;2023-04-03T19:59:17;7.6;48
74458;SHT31;62896;51.032;3.712;2023-04-03T20:02:37;7.6;48
74458;SHT31;62896;51.032;3.712;2023-04-03T20:05:57;7.4;49
74458;SHT31;62896;51.032;3.712;2023-04-03T20:09:17;7.4;49
74458;SHT31;62896;51.032;3.712;2023-04-03T20:12:37;7.4;49
74458;SHT31;62896;51.032;3.712;2023-04-03T20:16:00;7.2;50
74458;SHT31;62896;51.032;3.712;2023-04-03T20:19:17;7.2;50
74458;SHT31;62896;51.032;3.712;2023-04-03T20:22:37;7.2;50
74458;SHT31;62896;51.032;3.712;2023-04-03T20:25:57;7.1;51
74458;SHT31;62896;51.032;3.712;2023-04-03T20:29:17;7.1;51
74458;SHT31;62896;51.032;3.712;2023-04-03T20:32:37;7.1;51
74458;SHT31;62896;51.032;3.712;2023-04-03T20:35:57;6.9;52
74458;SHT31;62896;51.032;3.712;2023-04-03T20:39:17;6.9;52
74458;SHT31;62896;51.032;3.712;2023-04-03T20:42:37;6.9;52
74458;SHT31;62896;51.032;3.712;2023-04-03T20:45:58;6.7;53
74458;SHT31;62896;51.032;3.712;2023-04-03T20:49:17;6.7;53
74458;SHT31;62896;51.032;3.712;2023-04-03T20:52:37;6.7;53
74458;SHT31;62896;51.032;3.712;2023-04-03T20:55:57;6.6;54
74458;SHT31;62896;51.032;3.712;2023-04-03T20:59:17;6.6;54
74458;SHT31;62896;51.032;3.712;2023-04-03T21:02:37;6.6;54
74458;SHT31;62896;51.032;3.712;2023-04-03T21:19:18;6.3;55
74458;SHT31;62896;51.032;3.712;2023-04-03T21:22:37;6.3;55
74458;SHT31;62896;51.032;3.712;2023-04-03T21:25:58;6.2;56
74458;SHT31;62896;51.032;3.712;2023-04-03T21:29:17;6.2;56
74458;SHT31;62896;51.032;3.712;2023-04-03T21:32:37;6.2;56
74458;SHT31;62896;51.032;3.712;2023-04-03T21:35:57;6;57
74458;SHT31;62896;51.032;3.712;2023-04-03T21:39:17;6;57
74458;SHT31;62896;51.032;3.712;2023-04-03T21:42:37;6;57
74458;SHT31;62896;51.032;3.712;2023-04-03T21:45:57;5.9;57
74458;SHT31;62896;51.032;3.712;2023-04-03T21:49:17;5.9;57
74458;SHT31;62896;51.032;3.712;2023-04-03T21:52:37;5.9;57
74458;SHT31;62896;51.032;3.712;2023-04-03T21:55:57;5.8;58
74458;SHT31;62896;51.032;3.712;2023-04-03T21:59:17;5.8;58
74458;SHT31;62896;51.032;3.712;2023-04-03T22:02:38;5.8;58
74458;SHT31;62896;51.032;3.712;2023-04-03T22:05:57;5.7;58
74458;SHT31;62896;51.032;3.712;2023-04-03T22:09:17;5.7;58
74458;SHT31;62896;51.032;3.712;2023-04-03T22:12:37;5.7;58
74458;SHT31;62896;51.032;3.712;2023-04-03T22:15:57;5.6;58
74458;SHT31;62896;51.032;3.712;2023-04-03T22:19:17;5.6;58
74458;SHT31;62896;51.032;3.712;2023-04-03T22:22:37;5.6;58
74458;SHT31;62896;51.032;3.712;2023-04-03T22:25:57;5.5;59
74458;SHT31;62896;51.032;3.712;2023-04-03T22:29:17;5.5;59
74458;SHT31;62896;51.032;3.712;2023-04-03T22:32:37;5.5;59
74458;SHT31;62896;51.032;3.712;2023-04-03T22:35:57;5.4;59
74458;SHT31;62896;51.032;3.712;2023-04-03T22:39:17;5.4;59
74458;SHT31;62896;51.032;3.712;2023-04-03T22:42:37;5.4;59
74458;SHT31;62896;51.032;3.712;2023-04-03T22:45:58;5.4;58
74458;SHT31;62896;51.032;3.712;2023-04-03T22:49:17;5.4;58
74458;SHT31;62896;51.032;3.712;2023-04-03T22:52:37;5.4;58
74458;SHT31;62896;51.032;3.712;2023-04-03T22:55:58;5.3;58
74458;SHT31;62896;51.032;3.712;2023-04-03T22:59:17;5.3;58
74458;SHT31;62896;51.032;3.712;2023-04-03T23:02:37;5.3;58